Pindi Bhattian Weather



Pindi Bhattian's Current Weather

Temprature 26.78o clear sky

clear sky

Rain: 0 %

Min Temprature26.78o
Max Temprature26.78o
Humidity51
Wind Speed4.81 m/h
Sun Rise05:05:05
Sun Set19:02:39
Current Time: 24-May-2022 08:44:55
Lat/Lon: 31.8978, 73.273




Pindi Bhattian's Geo Location



Pindi Bhattian's Weather Forecast

Time Overall Temp Min Temp Max Temp Humidity Wind Speed Rain
24-May-2022 (Tue)
11:00:00 clear sky 26.950 26.950 30.180 50 3.73 m/h 0 %
14:00:00 clear sky 30.560 30.560 33.170 37 3.32 m/h 0 %
17:00:00 clear sky 33.740 33.740 33.740 24 1.22 m/h 0 %
20:00:00 clear sky 30.680 30.680 30.680 30 0.85 m/h 0 %
23:00:00 clear sky 29.080 29.080 29.080 33 0.86 m/h 0 %
25-May-2022 (Wed)
02:00:00 clear sky 28.100 28.100 28.100 33 1.24 m/h 0 %
05:00:00 clear sky 26.780 26.780 26.780 36 1.62 m/h 0 %
08:00:00 clear sky 31.470 31.470 31.470 28 2.33 m/h 0 %
11:00:00 clear sky 36.030 36.030 36.030 19 2.45 m/h 0 %
14:00:00 clear sky 38.610 38.610 38.610 16 0.35 m/h 0 %
17:00:00 clear sky 38.220 38.220 38.220 16 1.17 m/h 0 %
20:00:00 clear sky 34.620 34.620 34.620 21 2.55 m/h 0 %
23:00:00 clear sky 33.130 33.130 33.130 23 2.28 m/h 0 %
26-May-2022 (Thu)
02:00:00 clear sky 31.620 31.620 31.620 24 1.17 m/h 0 %
05:00:00 clear sky 29.770 29.770 29.770 27 0.48 m/h 0 %
08:00:00 clear sky 34.640 34.640 34.640 21 1.86 m/h 0 %
11:00:00 clear sky 39.200 39.200 39.200 15 2.75 m/h 0 %
14:00:00 clear sky 41.860 41.860 41.860 12 2.01 m/h 0 %
17:00:00 clear sky 41.900 41.900 41.900 11 1.45 m/h 0 %
20:00:00 clear sky 37.230 37.230 37.230 16 3.06 m/h 0 %
23:00:00 clear sky 34.780 34.780 34.780 19 3.01 m/h 0 %
27-May-2022 (Fri)
02:00:00 clear sky 32.980 32.980 32.980 21 2.42 m/h 0 %
05:00:00 clear sky 30.970 30.970 30.970 24 2.54 m/h 0 %
08:00:00 clear sky 36.830 36.830 36.830 17 2.92 m/h 0 %
11:00:00 clear sky 42.610 42.610 42.610 12 3.74 m/h 0 %
14:00:00 clear sky 45.070 45.070 45.070 9 3.63 m/h 0 %
17:00:00 clear sky 44.800 44.800 44.800 10 3.38 m/h 0 %
20:00:00 clear sky 39.280 39.280 39.280 18 3.6 m/h 0 %
23:00:00 clear sky 36.990 36.990 36.990 22 3.79 m/h 0 %
28-May-2022 (Sat)
02:00:00 clear sky 35.220 35.220 35.220 25 4.06 m/h 0 %
05:00:00 clear sky 33.070 33.070 33.070 26 5.14 m/h 0 %
08:00:00 clear sky 37.680 37.680 37.680 17 4.73 m/h 0 %
11:00:00 clear sky 42.580 42.580 42.580 9 5.3 m/h 0 %
14:00:00 clear sky 45.310 45.310 45.310 7 5.65 m/h 0 %
17:00:00 clear sky 45.140 45.140 45.140 5 4.32 m/h 0 %
20:00:00 clear sky 38.630 38.630 38.630 8 3.5 m/h 0 %
23:00:00 clear sky 34.910 34.910 34.910 23 9.22 m/h 0 %
29-May-2022 (Sun)
02:00:00 clear sky 32.440 32.440 32.440 32 8.05 m/h 0 %
05:00:00 clear sky 31.070 31.070 31.070 35 5.94 m/h 0 %
08:00:00 clear sky 34.530 34.530 34.530 34 7.19 m/h 0 %

Famous Cities (61)